Terminal Aerodrome Forecast
Issued by NWS

Home | Current Version | Previous Version | Text Only | Print | Product List | Glossary On
Versions: 1 2 3 4 5 6 7 8 9 10 11 12 13 14 15 16 17 18 19 20
475
FTUS41 KPBZ 280918 AAA
TAFAGC
TAF AMD
KAGC 280918Z 2809/2906 VRB04KT 6SM -SHRA SCT035 OVC080
     FM281200 11003KT 4SM -SHRA BR OVC015
     FM281600 32005KT 6SM -SHRA BR OVC008
     FM282000 33008KT P6SM OVC015=

USA.gov is the U.S. government's official web portal to all federal, state and local government web resources and services.